Home

Weather

KSLC Current Conditions

KSLC 241054Z 34004KT 10SM FEW030 OVC041 06/05 A2998 RMK AO2 RAE53 SLP138 P0003 T00560050

KSLC Aviation Forecast

TAF KSLC 241120Z 2412/2518 32005KT P6SM -RA BKN035 OVC045 FM241600 32009KT P6SM VCSH SCT040 OVC060 FM241900 29009KT P6SM SCT050 BKN080 FM250300 16007KT P6SM SCT080


42° F
Rain
Rain

Rain
Sunday
Rain
High 50°/Low 35°
80%
Clear
Monday
Clear
High 61°/Low 44°
0%
Partly Cloudy
Tuesday
Partly Cloudy
High 66°/Low 48°
0%
Overcast
Wednesday
Overcast
High 63°/Low 43°
20%
Chance of Rain
Thursday
Chance of Rain
High 49°/Low 37°
60%
Chance of Rain
Friday
Chance of Rain
High 48°/Low 35°
40%